Time,TemperatureF,DewpointF,PressureIn,WindDirection,WindDirectionDegrees,WindSpeedMPH,WindSpeedGustMPH,Humidity,HourlyPrecipIn,Conditions,Clouds,dailyrainin,SoftwareType,DateUTC
2013-07-16 01:32:00,74.0,74.0,30.10,East,89,0.0,2.0,100,99.99,,,-99.99,,2013-07-16 05:32:00,
2013-07-16 01:52:00,74.0,74.0,30.10,North,0,0.0,0.0,100,99.99,,,-99.99,,2013-07-16 05:52:00,
2013-07-16 02:01:00,74.0,74.0,30.10,North,0,0.0,0.0,100,99.99,,,-99.99,,2013-07-16 06:01:00,
2013-07-16 02:52:00,74.0,74.0,30.10,ESE,107,1.0,3.0,100,99.99,,,-99.99,,2013-07-16 06:52:00,
2013-07-16 03:01:00,74.0,74.0,30.10,ESE,114,3.0,5.0,100,99.99,,,-99.99,,2013-07-16 07:01:00,
2013-07-16 03:11:00,74.0,74.0,30.10,ESE,107,2.0,4.0,100,99.99,,,-99.99,,2013-07-16 07:11:00,
2013-07-16 03:32:00,74.0,74.0,30.09,North,0,0.0,0.0,100,99.99,,,-99.99,,2013-07-16 07:32:00,
2013-07-16 03:43:00,74.0,74.0,30.09,North,0,0.0,0.0,100,99.99,,,-99.99,,2013-07-16 07:43:00,
2013-07-16 03:52:00,74.0,74.0,30.09,North,0,0.0,0.0,100,99.99,,,-99.99,,2013-07-16 07:52:00,
2013-07-16 04:01:00,74.0,74.0,30.09,ENE,59,0.0,2.0,100,99.99,,,-99.99,,2013-07-16 08:01:00,
2013-07-16 04:11:00,74.0,74.0,30.09,East,79,0.0,1.0,100,99.99,,,-99.99,,2013-07-16 08:11:00,
2013-07-16 04:22:00,74.0,74.0,30.09,ESE,107,1.0,4.0,100,99.99,,,-99.99,,2013-07-16 08:22:00,
2013-07-16 04:32:00,74.0,74.0,30.09,ENE,66,1.0,3.0,100,99.99,,,-99.99,,2013-07-16 08:32:00,
2013-07-16 04:52:00,74.0,74.0,30.09,East,93,3.0,5.0,100,99.99,,,-99.99,,2013-07-16 08:52:00,
2013-07-16 05:01:00,74.0,74.0,30.09,NE,48,3.0,5.0,100,99.99,,,-99.99,,2013-07-16 09:01:00,
2013-07-16 05:32:00,74.0,74.0,30.09,ENE,77,3.0,5.0,100,99.99,,,-99.99,,2013-07-16 09:32:00,
2013-07-16 05:42:00,74.0,74.0,30.09,ENE,60,2.0,5.0,100,99.99,,,-99.99,,2013-07-16 09:42:00,
2013-07-16 05:52:00,74.0,74.0,30.10,ENE,76,3.0,5.0,100,99.99,,,-99.99,,2013-07-16 09:52:00,
2013-07-16 06:43:00,74.0,74.0,30.11,ENE,68,3.0,5.0,100,99.99,,,-99.99,,2013-07-16 10:43:00,
2013-07-16 06:52:00,73.0,73.0,30.11,East,84,3.0,5.0,100,99.99,,,-99.99,,2013-07-16 10:52:00,
2013-07-16 08:01:00,75.0,75.0,30.11,East,91,4.0,8.0,100,99.99,,,-99.99,,2013-07-16 12:01:00,
2013-07-16 10:02:00,81.0,77.0,30.14,East,101,7.0,12.0,89,99.99,,,-99.99,,2013-07-16 14:02:00,
2013-07-16 10:52:00,83.0,73.0,30.14,ESE,114,8.0,15.0,73,99.99,,,-99.99,,2013-07-16 14:52:00,
2013-07-16 12:43:00,86.0,67.0,30.14,East,90,8.0,15.0,54,99.99,,,-99.99,,2013-07-16 16:43:00,
2013-07-16 12:52:00,86.0,68.0,30.14,SE,132,7.0,12.0,56,99.99,,,-99.99,,2013-07-16 16:52:00,
2013-07-16 13:43:00,85.0,69.0,30.12,East,100,8.0,15.0,59,99.99,,,-99.99,,2013-07-16 17:43:00,
2013-07-16 16:03:00,73.0,73.0,30.14,SSE,159,2.0,4.0,100,99.99,,,-99.99,,2013-07-16 20:03:00,
2013-07-16 16:43:00,74.0,74.0,30.14,ESE,110,3.0,7.0,100,99.99,,,-99.99,,2013-07-16 20:43:00,
2013-07-16 16:52:00,74.0,74.0,30.13,ENE,76,2.0,5.0,100,99.99,,,-99.99,,2013-07-16 20:52:00,
2013-07-16 17:11:00,74.0,74.0,30.12,ESE,108,4.0,7.0,100,99.99,,,-99.99,,2013-07-16 21:11:00,
2013-07-16 17:52:00,75.0,75.0,30.11,ESE,114,2.0,4.0,100,99.99,,,-99.99,,2013-07-16 21:52:00,
2013-07-16 18:43:00,75.0,75.0,30.11,East,97,2.0,4.0,100,99.99,,,-99.99,,2013-07-16 22:43:00,
2013-07-16 18:52:00,76.0,76.0,30.11,ENE,65,2.0,5.0,100,99.99,,,-99.99,,2013-07-16 22:52:00,
2013-07-16 19:32:00,75.0,75.0,30.12,East,83,3.0,6.0,100,99.99,,,-99.99,,2013-07-16 23:32:00,
2013-07-16 19:43:00,76.0,76.0,30.13,ENE,65,3.0,4.0,100,99.99,,,-99.99,,2013-07-16 23:43:00,
2013-07-16 20:01:00,76.0,76.0,30.14,ENE,68,3.0,6.0,100,99.99,,,-99.99,,2013-07-17 00:01:00,
2013-07-16 20:11:00,76.0,76.0,30.13,ENE,70,3.0,7.0,100,99.99,,,-99.99,,2013-07-17 00:11:00,
2013-07-16 20:33:00,75.0,75.0,30.14,NNE,18,1.0,3.0,100,99.99,,,-99.99,,2013-07-17 00:33:00,
2013-07-16 20:42:00,75.0,75.0,30.14,North,10,2.0,5.0,100,99.99,,,-99.99,,2013-07-17 00:42:00,
2013-07-16 20:52:00,75.0,75.0,30.14,NNE,13,3.0,5.0,100,99.99,,,-99.99,,2013-07-17 00:52:00,
2013-07-16 21:01:00,75.0,75.0,30.14,NE,39,1.0,2.0,100,99.99,,,-99.99,,2013-07-17 01:01:00,
2013-07-16 21:11:00,74.0,74.0,30.14,ENE,75,0.0,2.0,100,99.99,,,-99.99,,2013-07-17 01:11:00,
2013-07-16 21:32:00,74.0,74.0,30.14,ENE,66,2.0,3.0,100,99.99,,,-99.99,,2013-07-17 01:32:00,
2013-07-16 21:43:00,74.0,74.0,30.14,NE,55,3.0,5.0,100,99.99,,,-99.99,,2013-07-17 01:43:00,
2013-07-16 21:53:00,74.0,74.0,30.15,ENE,69,3.0,5.0,100,99.99,,,-99.99,,2013-07-17 01:53:00,
2013-07-16 22:43:00,74.0,74.0,30.15,North,0,0.0,0.0,100,99.99,,,-99.99,,2013-07-17 02:43:00,
2013-07-16 23:43:00,74.0,74.0,30.15,ENE,70,2.0,4.0,100,99.99,,,-99.99,,2013-07-17 03:43:00,